Time;durP1;ratioP1;P1;durP2;ratioP2;P2;SDS_P1;SDS_P2;PMS_P1;PMS_P2;Temp;Humidity;BMP_temperature;BMP_pressure;BME280_temperature;BME280_humidity;BME280_pressure;Samples;Min_cycle;Max_cycle;Signal;HPM_P1;HPM_P2
2022/09/18 00:00:58;;;;;;;0.00;0.00;;;19.60;99.90;;;19.59;49.74;101109.72;4945710;28;121754;-47
2022/09/18 00:03:24;;;;;;;0.00;0.00;;;19.50;99.90;;;19.64;50.10;101117.44;4926600;28;97466;-51
2022/09/18 00:05:50;;;;;;;0.00;0.00;;;19.50;99.90;;;19.69;49.83;101112.66;4922560;28;96917;-48
2022/09/18 00:08:16;;;;;;;0.13;0.07;;;19.60;99.90;;;19.54;50.34;101110.97;4947807;28;97094;-51
2022/09/18 00:10:45;;;;;;;0.20;0.00;;;19.40;99.90;;;19.60;50.19;101111.44;4940805;28;103654;-48
2022/09/18 00:13:13;;;;;;;0.00;0.00;;;19.50;99.90;;;19.60;49.88;101105.22;4926406;28;98320;-55
2022/09/18 00:15:39;;;;;;;0.00;0.00;;;19.50;99.90;;;19.56;50.08;101114.44;4945127;28;97306;-48
2022/09/18 00:18:06;;;;;;;0.00;0.00;;;19.40;99.90;;;19.63;50.30;101115.72;4951370;28;96627;-53
2022/09/18 00:20:36;;;;;;;0.00;0.00;;;19.50;99.90;;;19.66;50.14;101110.16;4939894;28;97371;-44
2022/09/18 00:23:02;;;;;;;0.00;0.00;;;19.50;99.90;;;19.64;50.17;101114.75;4947115;28;96901;-51
2022/09/18 00:25:29;;;;;;;0.00;0.00;;;19.50;99.90;;;19.65;50.06;101121.81;4939330;28;97203;-48
2022/09/18 00:27:54;;;;;;;0.00;0.00;;;19.60;99.90;;;19.64;50.28;101117.44;4922752;28;96786;-50
2022/09/18 00:30:20;;;;;;;1.20;0.47;;;19.50;99.90;;;19.78;50.03;101113.84;4927353;28;117587;-47
2022/09/18 00:32:46;;;;;;;0.00;0.00;;;19.70;99.90;;;19.75;49.56;101114.91;4950066;28;97363;-50
2022/09/18 00:35:12;;;;;;;0.00;0.00;;;19.70;99.90;;;19.80;49.82;101118.13;4941097;28;97888;-48
2022/09/18 00:37:38;;;;;;;0.00;0.00;;;19.70;99.90;;;19.80;49.79;101118.13;4945825;28;102625;-51
2022/09/18 00:40:04;;;;;;;0.00;0.00;;;19.70;99.90;;;19.84;49.87;101119.66;4948037;28;119656;-50
2022/09/18 00:42:30;;;;;;;0.00;0.00;;;19.70;99.90;;;19.84;49.76;101116.13;4943429;28;98233;-50
2022/09/18 00:44:56;;;;;;;0.00;0.00;;;19.70;99.90;;;19.82;49.48;101116.25;4943400;28;106584;-52
2022/09/18 00:47:31;;;;;;;0.00;0.00;;;19.70;99.90;;;19.83;49.77;101117.94;4928412;28;105875;-45
2022/09/18 00:50:16;;;;;;;0.00;0.00;;;19.70;99.90;;;19.85;49.94;101110.66;4944623;28;97559;-46
2022/09/18 00:53:00;;;;;;;0.00;0.00;;;19.70;99.90;;;19.87;49.93;101106.06;4922741;28;99021;-48
2022/09/18 00:55:31;;;;;;;1.23;0.50;;;19.70;99.90;;;19.91;49.99;101099.53;4924549;28;97237;-52
2022/09/18 00:58:00;;;;;;;0.00;0.00;;;19.80;99.90;;;19.95;49.89;101102.84;4937932;28;97635;-53
2022/09/18 01:00:28;;;;;;;0.00;0.00;;;19.90;99.90;;;19.99;49.69;101106.22;4937744;28;98038;-50
2022/09/18 01:03:00;;;;;;;0.00;0.00;;;19.90;99.90;;;20.00;49.69;101102.56;4930359;28;99730;-49
2022/09/18 01:05:46;;;;;;;0.17;0.17;;;19.90;99.90;;;19.99;49.56;101116.91;4951425;28;97241;-51
2022/09/18 01:08:34;;;;;;;0.00;0.00;;;19.90;99.90;;;20.00;49.62;101103.41;4946491;28;97285;-49
2022/09/18 01:11:15;;;;;;;0.00;0.00;;;19.90;99.90;;;20.00;49.83;101103.41;4940689;28;102744;-46
2022/09/18 01:14:19;;;;;;;0.00;0.00;;;19.90;99.90;;;19.92;49.66;101111.97;4946932;28;97606;-52
2022/09/18 01:17:17;;;;;;;0.00;0.00;;;19.80;99.90;;;19.94;49.76;101113.66;4869096;28;97655;-52
2022/09/18 01:20:17;;;;;;;0.00;0.00;;;19.80;99.90;;;19.91;49.68;101107.56;4871928;28;97709;-46
2022/09/18 01:23:05;;;;;;;0.00;0.00;;;19.80;99.90;;;19.90;49.89;101113.03;4936823;28;98875;-47
2022/09/18 01:26:01;;;;;;;0.00;0.00;;;19.80;99.90;;;19.91;49.76;101115.59;4946803;28;97339;-53
2022/09/18 01:28:59;;;;;;;0.00;0.00;;;19.80;99.90;;;19.94;49.97;101116.34;4955266;28;96894;-47
2022/09/18 01:31:41;;;;;;;0.00;0.00;;;19.80;99.90;;;19.94;49.72;101116.34;4940655;28;97637;-47
2022/09/18 01:34:21;;;;;;;0.00;0.00;;;19.80;99.90;;;19.90;49.97;101113.88;4944430;28;97399;-52
2022/09/18 01:37:00;;;;;;;0.00;0.00;;;19.80;99.90;;;19.92;49.92;101117.31;4948298;28;100526;-49
2022/09/18 01:40:00;;;;;;;0.00;0.00;;;19.80;99.90;;;19.86;48.04;101109.72;4916529;28;97312;-53
2022/09/18 01:42:28;;;;;;;0.00;0.00;;;19.70;99.90;;;19.85;50.03;101109.81;4943052;28;97330;-49
2022/09/18 01:44:59;;;;;;;0.00;0.00;;;19.70;99.90;;;19.80;50.33;101123.47;4924629;28;99662;-47
2022/09/18 01:47:31;;;;;;;0.00;0.00;;;19.60;99.90;;;19.83;50.10;101120.63;4947879;28;97385;-50
2022/09/18 01:50:00;;;;;;;0.00;0.00;;;19.60;99.90;;;19.81;49.76;101119.84;4943341;28;96936;-47
2022/09/18 01:52:32;;;;;;;0.00;0.00;;;19.70;99.90;;;19.70;49.74;101121.53;4943604;28;107936;-47
2022/09/18 01:55:01;;;;;;;0.20;0.10;;;19.50;99.90;;;19.72;50.51;101115.13;4931199;28;97846;-49
2022/09/18 01:57:42;;;;;;;0.00;0.00;;;19.60;99.90;;;19.74;50.42;101113.19;4949298;28;97172;-51
2022/09/18 02:00:11;;;;;;;0.00;0.00;;;19.50;99.90;;;19.72;50.57;101114.25;4934221;28;97198;-44
2022/09/18 02:02:44;;;;;;;0.00;0.00;;;19.50;99.90;;;19.74;50.30;101123.03;4947348;28;97191;-48
2022/09/18 02:05:38;;;;;;;0.00;0.00;;;19.50;99.90;;;19.74;50.59;101123.91;4950555;28;97578;-48
2022/09/18 02:08:26;;;;;;;0.00;0.00;;;19.50;99.90;;;19.70;50.42;101111.69;4925468;28;101299;-45
2022/09/18 02:11:02;;;;;;;0.00;0.00;;;19.50;99.90;;;19.67;50.12;101106.53;4942108;28;97268;-48
2022/09/18 02:13:40;;;;;;;0.00;0.00;;;19.50;99.90;;;19.72;50.56;101099.06;4929830;28;96763;-50
2022/09/18 02:16:16;;;;;;;0.00;0.00;;;19.60;99.90;;;19.74;50.44;101104.31;4949985;28;97789;-46
2022/09/18 02:18:48;;;;;;;0.00;0.00;;;19.60;99.90;;;19.76;50.57;101099.72;4940731;28;96652;-48
2022/09/18 02:21:21;;;;;;;0.00;0.00;;;19.60;99.90;;;19.71;50.30;101097.34;4948654;28;97969;-50
2022/09/18 02:23:47;;;;;;;0.00;0.00;;;19.60;99.90;;;19.70;49.71;101106.34;4923273;28;97237;-51
2022/09/18 02:26:14;;;;;;;0.00;0.00;;;19.60;99.90;;;19.74;50.77;101107.84;4941818;28;105349;-50
2022/09/18 02:28:41;;;;;;;0.00;0.00;;;19.60;99.90;;;19.76;50.45;101099.72;4944470;28;98052;-48
2022/09/18 02:31:07;;;;;;;0.00;0.00;;;19.60;99.90;;;19.78;50.31;101098.63;4932365;28;97053;-47
2022/09/18 02:33:35;;;;;;;0.00;0.00;;;19.70;99.90;;;19.84;50.26;101092.91;4948977;28;118294;-45
2022/09/18 02:36:26;;;;;;;0.00;0.00;;;19.70;99.90;;;19.86;50.37;101090.97;4944541;28;97644;-48
2022/09/18 02:39:06;;;;;;;0.00;0.00;;;19.70;99.90;;;19.90;50.14;101094.28;4941912;28;102255;-48
2022/09/18 02:42:10;;;;;;;0.00;0.00;;;19.80;99.90;;;19.87;50.20;101087.31;4935765;28;97340;-46
2022/09/18 02:45:00;;;;;;;0.00;0.00;;;19.80;99.90;;;19.66;49.73;101080.72;4944430;28;96844;-50
2022/09/18 02:47:48;;;;;;;0.00;0.00;;;19.70;99.90;;;19.80;50.39;101091.38;4946766;28;97200;-49
2022/09/18 02:50:19;;;;;;;0.00;0.00;;;19.70;99.90;;;19.76;49.91;101089.88;4939689;28;96942;-49
2022/09/18 02:54:08;;;;;;;0.10;0.10;;;19.70;99.90;;;19.68;50.77;101086.84;4923040;28;97224;-50
2022/09/18 02:56:47;;;;;;;0.00;0.00;;;19.60;99.90;;;19.71;50.62;101092.00;4817453;28;102860;-50
2022/09/18 03:02:58;;;;;;;0.00;0.00;;;19.70;99.90;;;19.79;50.60;101073.59;4856562;28;99886;-51
2022/09/18 03:05:25;;;;;;;0.00;0.00;;;19.70;99.90;;;19.78;50.51;101079.91;4859724;28;97299;-48
2022/09/18 03:07:52;;;;;;;0.00;0.00;;;19.70;99.90;;;19.76;49.39;101084.50;4928849;28;105771;-46
2022/09/18 03:10:18;;;;;;;0.00;0.00;;;19.70;99.90;;;19.69;50.66;101066.31;4946116;28;113733;-47
2022/09/18 03:12:44;;;;;;;0.00;0.00;;;19.60;99.90;;;19.75;50.70;101074.75;4946090;28;102948;-50
2022/09/18 03:15:10;;;;;;;0.00;0.00;;;19.60;99.90;;;19.75;50.38;101077.44;4936968;28;97099;-55
2022/09/18 03:17:36;;;;;;;0.00;0.00;;;19.70;99.90;;;19.71;48.75;101070.59;4946287;28;96986;-49
2022/09/18 03:20:04;;;;;;;0.00;0.00;;;19.60;99.90;;;19.75;50.69;101077.44;4936810;28;99092;-54
2022/09/18 03:22:30;;;;;;;0.00;0.00;;;19.70;99.90;;;19.82;50.47;101080.59;4944692;28;97449;-48
2022/09/18 03:24:56;;;;;;;0.00;0.00;;;19.70;99.90;;;19.87;50.31;101071.25;4949574;28;100099;-50
2022/09/18 03:27:21;;;;;;;0.00;0.00;;;19.80;99.90;;;19.88;50.35;101070.28;4945317;28;97481;-48
2022/09/18 03:29:47;;;;;;;0.00;0.00;;;19.90;99.90;;;19.90;50.42;101071.03;4949151;28;114588;-46
2022/09/18 03:32:13;;;;;;;0.00;0.00;;;19.80;99.90;;;19.87;50.09;101073.94;4949434;28;97523;-51
2022/09/18 03:34:39;;;;;;;0.00;0.00;;;19.80;99.90;;;19.90;50.29;101081.75;4941154;28;97470;-49
2022/09/18 03:37:05;;;;;;;0.00;0.00;;;19.80;99.90;;;19.91;50.40;101078.13;4947683;28;107489;-49
2022/09/18 03:39:30;;;;;;;0.00;0.00;;;19.80;99.90;;;19.95;50.32;101081.44;4944308;28;113272;-47
2022/09/18 03:41:57;;;;;;;0.00;0.00;;;19.90;99.90;;;19.97;50.09;101076.00;4946920;28;97626;-46
2022/09/18 03:44:22;;;;;;;0.00;0.00;;;19.90;99.90;;;19.94;49.92;101073.50;4946105;28;96618;-48
2022/09/18 03:46:48;;;;;;;0.00;0.00;;;19.80;99.90;;;19.99;50.20;101068.72;4943433;28;105429;-44
2022/09/18 03:49:14;;;;;;;0.00;0.00;;;19.90;99.90;;;20.02;50.25;101079.22;4948445;28;96861;-50
2022/09/18 03:51:40;;;;;;;0.00;0.00;;;19.90;99.90;;;20.05;50.33;101084.34;4939956;28;108988;-49
2022/09/18 03:54:05;;;;;;;0.00;0.00;;;20.00;99.90;;;20.02;50.28;101073.84;4947909;28;97372;-48
2022/09/18 03:56:31;;;;;;;0.10;0.10;;;19.90;99.90;;;19.88;50.09;101081.00;4942236;28;96962;-50
2022/09/18 03:58:57;;;;;;;0.00;0.00;;;19.80;99.90;;;19.82;50.49;101084.13;4947827;28;117913;-48
2022/09/18 04:01:23;;;;;;;0.00;0.00;;;19.70;99.90;;;19.71;50.60;101078.63;4942708;28;98200;-48
2022/09/18 04:03:48;;;;;;;0.00;0.00;;;19.60;99.90;;;19.73;51.08;101083.88;4949195;28;97103;-50
2022/09/18 04:06:15;;;;;;;0.00;0.00;;;19.60;99.90;;;19.66;51.08;101087.91;4947908;28;101018;-46
2022/09/18 04:08:40;;;;;;;0.00;0.00;;;19.60;99.90;;;19.70;50.89;101079.59;4945877;28;96960;-47
2022/09/18 04:11:06;;;;;;;0.00;0.00;;;19.60;99.90;;;19.74;51.06;101081.09;4945080;28;97157;-48
2022/09/18 04:13:33;;;;;;;0.00;0.00;;;19.70;99.90;;;19.57;51.09;101089.38;4942212;28;97147;-48
2022/09/18 04:15:59;;;;;;;0.00;0.00;;;19.50;99.90;;;19.57;51.12;101094.75;4944032;28;99907;-50
2022/09/18 04:18:25;;;;;;;0.00;0.00;;;19.50;99.90;;;19.64;51.29;101082.66;4945491;28;97196;-43
2022/09/18 04:20:50;;;;;;;0.00;0.00;;;19.50;99.90;;;19.65;51.16;101081.69;4948313;28;113348;-53
2022/09/18 04:23:17;;;;;;;0.00;0.00;;;19.60;99.90;;;19.70;50.65;101084.06;4941579;28;97721;-52
2022/09/18 04:25:43;;;;;;;0.00;0.00;;;19.60;99.90;;;19.72;51.15;101083.00;4939643;28;97815;-48
2022/09/18 04:28:10;;;;;;;0.00;0.00;;;19.60;99.90;;;19.70;50.85;101076.91;4944007;28;97585;-51
2022/09/18 04:30:36;;;;;;;0.00;0.00;;;19.60;99.90;;;19.70;50.99;101076.91;4917086;28;97458;-53
2022/09/18 04:33:03;;;;;;;0.00;0.00;;;19.60;99.90;;;19.68;51.07;101080.66;4946517;28;97036;-52
2022/09/18 04:35:30;;;;;;;0.00;0.00;;;19.50;99.90;;;19.66;51.16;101094.09;4940256;28;96853;-50
2022/09/18 04:37:55;;;;;;;0.00;0.00;;;19.50;99.90;;;19.70;50.68;101079.59;4945918;28;97022;-51
2022/09/18 04:40:21;;;;;;;0.00;0.00;;;19.60;99.90;;;19.69;51.03;101088.56;4938892;28;107003;-52
2022/09/18 04:42:47;;;;;;;0.00;0.00;;;19.60;99.90;;;19.69;50.94;101093.06;4949230;28;97270;-50
2022/09/18 04:45:14;;;;;;;0.00;0.00;;;19.50;99.90;;;19.70;51.13;101087.59;4944437;28;100416;-45
2022/09/18 04:47:40;;;;;;;0.00;0.00;;;19.60;99.90;;;19.75;50.83;101090.81;4944300;28;97233;-46
2022/09/18 04:50:07;;;;;;;0.00;0.00;;;19.60;99.90;;;19.73;51.05;101084.72;4948271;28;109411;-51
2022/09/18 04:52:34;;;;;;;0.00;0.00;;;19.60;99.90;;;19.75;50.80;101082.78;4945516;28;97200;-50
2022/09/18 04:55:00;;;;;;;0.00;0.00;;;19.60;99.90;;;19.81;50.93;101090.41;4947360;28;97097;-50
2022/09/18 04:57:26;;;;;;;0.00;0.00;;;19.70;99.90;;;19.81;50.78;101095.75;4941286;28;105412;-47
2022/09/18 04:59:52;;;;;;;0.00;0.00;;;19.70;99.90;;;19.80;50.75;101086.00;4947236;28;97549;-50
2022/09/18 05:02:18;;;;;;;0.10;0.10;;;19.70;99.90;;;19.82;50.93;101083.25;4942488;28;97555;-52
2022/09/18 05:04:44;;;;;;;0.00;0.00;;;19.70;99.90;;;19.83;50.78;101069.75;4944519;28;99233;-46
2022/09/18 05:07:10;;;;;;;0.00;0.00;;;19.70;99.90;;;19.82;50.75;101068.06;4947595;28;97370;-50
2022/09/18 05:09:35;;;;;;;0.03;0.03;;;19.70;99.90;;;19.75;50.44;101072.09;4941962;28;97547;-48
2022/09/18 05:12:02;;;;;;;0.00;0.00;;;19.60;99.90;;;19.79;50.93;101070.91;4951173;28;104726;-45
2022/09/18 05:14:27;;;;;;;0.00;0.00;;;19.60;99.90;;;19.80;50.90;101064.59;4946532;28;97183;-47
2022/09/18 05:16:55;;;;;;;0.00;0.00;;;19.60;99.90;;;19.85;50.80;101066.97;4944988;28;107155;-49
2022/09/18 05:19:21;;;;;;;0.43;0.43;;;19.70;99.90;;;19.85;50.84;101073.19;4942803;28;96974;-55
2022/09/18 05:21:49;;;;;;;0.00;0.00;;;19.70;99.90;;;19.77;49.52;101075.50;4941951;28;97736;-47
2022/09/18 05:24:16;;;;;;;0.00;0.00;;;19.60;99.90;;;19.79;51.19;101060.19;4952097;28;97149;-45
2022/09/18 05:26:46;;;;;;;0.00;0.00;;;19.60;99.90;;;19.80;51.12;101063.75;4941806;28;96970;-52
2022/09/18 05:29:11;;;;;;;0.00;0.00;;;19.60;99.90;;;19.79;50.73;101068.22;4951260;28;97332;-50
2022/09/18 05:31:37;;;;;;;0.00;0.00;;;19.60;99.90;;;19.83;51.03;101069.75;4946612;28;100311;-54
2022/09/18 05:34:03;;;;;;;0.00;0.00;;;19.70;99.90;;;19.88;51.07;101064.09;4951460;28;97008;-48
2022/09/18 05:36:29;;;;;;;0.00;0.00;;;19.80;99.90;;;19.91;51.14;101071.91;4940737;28;98534;-52
2022/09/18 05:38:55;;;;;;;0.00;0.00;;;19.80;99.90;;;19.85;51.11;101070.50;4946541;28;102106;-47
2022/09/18 05:41:20;;;;;;;0.00;0.00;;;19.70;99.90;;;19.90;51.07;101076.41;4926197;28;100739;-48
2022/09/18 05:43:46;;;;;;;0.00;0.00;;;19.80;99.90;;;19.89;50.96;101069.34;4946051;28;97245;-48
2022/09/18 05:46:13;;;;;;;0.00;0.00;;;19.80;99.90;;;19.88;50.76;101072.97;4946851;28;97227;-46
2022/09/18 05:48:39;;;;;;;0.00;0.00;;;19.80;99.90;;;19.88;50.79;101064.09;4946002;28;97234;-51
2022/09/18 05:51:05;;;;;;;0.00;0.00;;;19.80;99.90;;;19.86;50.97;101074.91;4932710;28;97168;-49
2022/09/18 05:53:31;;;;;;;0.00;0.00;;;19.70;99.90;;;19.81;51.10;101066.31;4947217;28;97504;-50
2022/09/18 05:55:59;;;;;;;0.63;0.10;;;19.70;99.90;;;19.78;51.26;101066.53;4949326;28;97734;-48
2022/09/18 05:58:25;;;;;;;0.67;0.20;;;19.60;99.90;;;19.77;51.32;101072.84;4947375;28;97407;-48
2022/09/18 06:00:51;;;;;;;0.00;0.00;;;19.60;99.90;;;19.80;51.22;101080.66;4944478;28;97509;-48
2022/09/18 06:03:17;;;;;;;0.00;0.00;;;19.60;99.90;;;19.75;51.34;101074.75;4938090;28;97376;-51
2022/09/18 06:05:51;;;;;;;0.00;0.00;;;19.60;99.90;;;19.78;51.36;101087.94;4938082;28;97215;-51
2022/09/18 06:08:17;;;;;;;0.07;0.00;;;19.70;99.90;;;19.76;51.43;101078.28;4942630;28;97413;-52
2022/09/18 06:10:43;;;;;;;0.00;0.00;;;19.70;99.90;;;19.68;51.65;101073.47;4941061;28;97807;-50
2022/09/18 06:13:14;;;;;;;0.00;0.00;;;19.60;99.90;;;19.68;51.50;101076.16;4950033;28;97009;-48
2022/09/18 06:15:44;;;;;;;0.00;0.00;;;19.60;99.90;;;19.60;51.85;101089.16;4945820;28;98626;-47
2022/09/18 06:18:13;;;;;;;0.10;0.10;;;19.50;99.90;;;19.46;52.07;101097.22;4946001;28;97508;-49
2022/09/18 06:20:42;;;;;;;0.00;0.00;;;19.30;99.90;;;19.52;51.99;101092.31;4943627;28;97588;-51
2022/09/18 06:23:09;;;;;;;0.00;0.00;;;19.40;99.90;;;19.50;51.95;101098.72;4942733;28;97523;-46
2022/09/18 06:25:35;;;;;;;0.00;0.00;;;19.40;99.90;;;19.56;51.86;101093.03;4939815;28;97532;-48
2022/09/18 06:28:02;;;;;;;0.00;0.00;;;19.50;99.90;;;19.51;51.18;101111.13;4943462;28;97482;-51
2022/09/18 06:30:31;;;;;;;0.10;0.10;;;19.50;99.90;;;19.35;52.60;101097.91;4942353;28;97116;-54
2022/09/18 06:33:06;;;;;;;0.00;0.00;;;19.20;99.90;;;19.31;51.09;101099.09;4943439;28;97056;-49
2022/09/18 06:35:33;;;;;;;0.10;0.00;;;19.20;99.90;;;19.31;51.82;101094.59;4942094;28;98023;-52
2022/09/18 06:38:04;;;;;;;0.00;0.00;;;19.10;99.90;;;19.37;52.72;101103.16;4945058;28;97739;-49
2022/09/18 06:40:31;;;;;;;0.00;0.00;;;19.20;99.90;;;19.35;52.45;101099.72;4944709;28;96859;-53
2022/09/18 06:42:58;;;;;;;0.00;0.00;;;19.20;99.90;;;19.32;52.35;101096.31;4930280;28;97418;-49
2022/09/18 06:45:25;;;;;;;0.00;0.00;;;19.10;99.90;;;19.31;52.71;101099.94;4940656;28;104170;-54
2022/09/18 06:47:54;;;;;;;0.10;0.10;;;19.10;99.90;;;19.38;52.61;101091.50;4948893;28;97514;-51
2022/09/18 06:50:21;;;;;;;0.00;0.00;;;19.20;99.90;;;19.43;52.37;101087.59;4932537;28;97048;-49
2022/09/18 06:52:48;;;;;;;0.00;0.00;;;19.30;99.90;;;19.37;52.24;101092.47;4947266;28;97574;-50
2022/09/18 06:55:15;;;;;;;0.77;0.10;;;19.20;99.90;;;19.42;52.58;101098.38;4947223;28;96909;-51
2022/09/18 06:57:41;;;;;;;0.00;0.00;;;19.30;99.90;;;19.49;52.18;101097.00;4944989;28;97131;-52
2022/09/18 07:00:08;;;;;;;0.00;0.00;;;19.40;99.90;;;19.53;51.94;101093.19;4947372;28;97134;-45
2022/09/18 07:02:35;;;;;;;0.00;0.00;;;19.40;99.90;;;19.59;51.97;101076.75;4939910;28;99610;-47
2022/09/18 07:05:01;;;;;;;0.00;0.00;;;19.50;99.90;;;19.64;52.07;101079.97;4942127;28;97442;-48
2022/09/18 07:07:27;;;;;;;0.00;0.00;;;19.50;99.90;;;19.71;51.81;101081.28;4945112;28;103983;-48
2022/09/18 07:09:52;;;;;;;0.00;0.00;;;19.60;99.90;;;19.73;51.55;101082.03;4946562;28;97290;-44
2022/09/18 07:12:18;;;;;;;0.00;0.00;;;19.60;99.90;;;19.78;51.58;101076.38;4942639;28;98407;-46
2022/09/18 07:14:44;;;;;;;0.00;0.00;;;19.60;99.90;;;19.79;51.55;101078.09;4942708;28;113215;-50
2022/09/18 07:17:12;;;;;;;0.87;0.10;;;19.60;99.90;;;19.84;51.58;101070.63;4947530;28;97366;-53
2022/09/18 07:19:38;;;;;;;0.00;0.00;;;19.70;99.90;;;19.75;50.95;101066.72;4938189;28;96853;-46
2022/09/18 07:22:03;;;;;;;0.00;0.00;;;19.70;99.90;;;19.80;51.37;101069.94;4940967;28;101075;-51
2022/09/18 07:24:29;;;;;;;0.00;0.00;;;19.70;99.90;;;19.79;50.97;101073.59;4943839;28;98069;-45
2022/09/18 07:26:57;;;;;;;0.00;0.00;;;19.70;99.90;;;19.81;51.51;101068.97;4946130;28;97926;-45
2022/09/18 07:29:22;;;;;;;0.10;0.10;;;19.70;99.90;;;19.82;51.41;101068.06;4945405;28;101011;-50
2022/09/18 07:31:48;;;;;;;0.00;0.00;;;19.80;99.90;;;19.82;51.44;101073.41;4948114;28;111134;-50
2022/09/18 07:34:14;;;;;;;0.00;0.00;;;19.70;99.90;;;19.84;51.18;101070.63;4947804;28;100564;-48
2022/09/18 07:36:40;;;;;;;0.00;0.00;;;19.80;99.90;;;19.67;51.21;101073.56;4944778;28;97306;-51
2022/09/18 07:39:05;;;;;;;0.07;0.00;;;19.60;99.90;;;19.70;51.61;101066.19;4948866;28;97147;-51
2022/09/18 07:41:31;;;;;;;0.00;0.00;;;19.60;99.90;;;19.75;51.38;101069.41;4933001;28;117971;-47
2022/09/18 07:43:57;;;;;;;0.00;0.00;;;19.70;99.90;;;19.78;51.28;101066.53;4946332;28;98665;-52
2022/09/18 07:46:23;;;;;;;0.00;0.00;;;19.70;99.90;;;19.81;51.41;101060.09;4943051;28;96890;-48
2022/09/18 07:48:49;;;;;;;0.00;0.00;;;19.70;99.90;;;19.72;50.39;101066.94;4945739;28;96925;-49
2022/09/18 07:51:15;;;;;;;0.00;0.00;;;19.60;99.90;;;19.57;51.79;101074.19;4942041;28;99140;-50
2022/09/18 07:53:40;;;;;;;0.00;0.00;;;19.50;99.90;;;19.62;51.78;101071.19;4944251;28;97156;-54
2022/09/18 07:56:11;;;;;;;0.00;0.00;;;19.50;99.90;;;19.71;51.74;101065.22;4948747;28;109905;-47
2022/09/18 07:58:37;;;;;;;0.00;0.00;;;19.60;99.90;;;19.66;51.62;101066.47;4944451;28;98715;-48
2022/09/18 08:01:04;;;;;;;0.00;0.00;;;19.60;99.90;;;19.56;51.70;101082.31;4943114;28;97308;-46
2022/09/18 08:03:31;;;;;;;0.00;0.00;;;19.40;99.90;;;19.54;51.85;101077.06;4942018;28;98169;-52
2022/09/18 08:05:57;;;;;;;0.00;0.00;;;19.40;99.90;;;19.51;50.78;101073.69;4946499;28;97131;-53
2022/09/18 08:08:23;;;;;;;0.00;0.00;;;19.40;99.90;;;19.48;52.08;101084.59;4922271;28;97231;-50
2022/09/18 08:10:49;;;;;;;0.10;0.10;;;19.40;99.90;;;19.44;52.28;101077.75;4923252;28;97082;-49
2022/09/18 08:13:14;;;;;;;0.03;0.03;;;19.30;99.90;;;19.37;52.04;101079.09;4938782;28;98111;-48
2022/09/18 08:15:42;;;;;;;0.00;0.00;;;19.30;99.90;;;19.34;52.52;101072.13;4940896;28;97203;-47
2022/09/18 08:18:10;;;;;;;0.00;0.00;;;19.20;99.90;;;19.38;52.32;101076.31;4947055;28;96728;-48
2022/09/18 08:20:36;;;;;;;0.00;0.00;;;19.30;99.90;;;19.41;52.08;101077.94;4944131;28;97263;-50
2022/09/18 08:23:04;;;;;;;0.00;0.00;;;19.30;99.90;;;19.40;52.59;101076.25;4953330;28;97352;-48
2022/09/18 08:25:30;;;;;;;0.00;0.00;;;19.30;99.90;;;19.39;52.45;101079.88;4932797;28;98360;-45
2022/09/18 08:28:00;;;;;;;0.00;0.00;;;19.30;99.90;;;19.33;52.76;101076.63;4951469;28;97537;-48
2022/09/18 08:30:28;;;;;;;0.00;0.00;;;19.30;99.90;;;19.43;52.42;101073.34;4945037;28;96878;-48
2022/09/18 08:33:02;;;;;;;0.00;0.00;;;19.40;99.90;;;19.47;52.46;101080.22;4938770;28;98436;-51
2022/09/18 08:35:30;;;;;;;0.00;0.00;;;19.40;99.90;;;19.44;51.73;101089.28;4941386;28;98143;-55
2022/09/18 08:37:57;;;;;;;0.00;0.00;;;19.40;99.90;;;19.43;52.29;101081.38;4940842;28;97532;-47
2022/09/18 08:41:05;;;;;;;0.00;0.00;;;19.40;99.90;;;19.48;51.95;101079.25;4940318;28;97443;-45
2022/09/18 08:44:00;;;;;;;0.00;0.00;;;19.40;99.90;;;19.36;52.07;101080.03;4944178;28;97290;-48
2022/09/18 08:47:05;;;;;;;0.00;0.00;;;19.30;99.90;;;19.18;52.38;101085.66;4946359;28;97231;-48
2022/09/18 08:49:44;;;;;;;0.00;0.00;;;19.20;99.90;;;19.23;52.27;101079.97;4921796;28;97288;-48
2022/09/18 08:52:22;;;;;;;0.00;0.00;;;19.20;99.90;;;19.16;52.82;101079.53;4914063;28;100260;-52
2022/09/18 08:55:03;;;;;;;0.13;0.10;;;19.10;99.90;;;18.82;53.30;101074.66;4924176;28;103217;-55
2022/09/18 08:57:50;;;;;;;0.00;0.00;;;18.80;99.90;;;18.75;53.37;101067.97;4929463;28;99245;-54
2022/09/18 09:00:22;;;;;;;0.00;0.00;;;18.80;99.90;;;18.63;54.25;101073.13;4932854;28;98164;-49
2022/09/18 09:03:25;;;;;;;0.00;0.00;;;18.60;99.90;;;18.84;53.60;101075.41;4929444;28;98104;-50
2022/09/18 09:06:00;;;;;;;0.00;0.00;;;18.80;99.90;;;18.85;53.98;101074.44;4929544;28;101200;-52
2022/09/18 09:08:55;;;;;;;0.00;0.00;;;18.80;99.90;;;18.80;53.74;101081.88;4913262;28;96899;-49
2022/09/18 09:11:52;;;;;;;0.00;0.00;;;18.80;99.90;;;18.83;53.61;101082.56;4927870;28;98237;-53
2022/09/18 09:14:51;;;;;;;1.10;0.50;;;18.80;99.90;;;18.98;52.06;101086.09;4916355;28;97363;-47
2022/09/18 09:17:38;;;;;;;0.00;0.00;;;19.00;99.90;;;18.77;54.06;101087.44;4928580;28;102258;-50
2022/09/18 09:20:17;;;;;;;0.00;0.00;;;18.70;99.90;;;18.98;52.97;101080.72;4927374;28;101601;-47
2022/09/18 09:22:54;;;;;;;0.00;0.00;;;19.00;99.90;;;18.97;52.62;101074.53;4935028;28;96785;-46
2022/09/18 09:25:30;;;;;;;0.00;0.00;;;19.00;99.90;;;18.85;53.79;101074.44;4936744;28;98435;-43
2022/09/18 09:28:21;;;;;;;0.00;0.00;;;18.80;99.90;;;18.84;54.07;101051.34;4912556;28;101981;-55
2022/09/18 09:30:53;;;;;;;0.00;0.00;;;18.80;99.90;;;18.96;53.75;101064.78;4917706;28;101818;-48
2022/09/18 09:33:23;;;;;;;0.83;0.10;;;18.90;99.90;;;19.08;53.44;101060.44;4930447;28;97762;-52
2022/09/18 09:35:54;;;;;;;0.00;0.00;;;19.00;99.90;;;19.01;53.85;101070.69;4923720;28;99123;-48
2022/09/18 09:38:48;;;;;;;0.40;0.20;;;19.00;99.90;;;19.18;53.30;101077.63;4910481;28;98609;-50
2022/09/18 09:41:33;;;;;;;0.00;0.00;;;19.10;99.90;;;19.22;53.09;101079.13;4926730;28;100002;-50
2022/09/18 09:44:18;;;;;;;0.00;0.00;;;19.20;99.90;;;19.30;53.08;101071.47;4925565;28;98762;-50
2022/09/18 09:47:11;;;;;;;0.03;0.03;;;19.30;99.90;;;19.35;53.02;101075.66;4924078;28;97510;-48
2022/09/18 09:50:09;;;;;;;0.20;0.00;;;19.30;99.90;;;19.16;53.38;101068.84;4914363;28;97629;-54
2022/09/18 09:52:37;;;;;;;0.20;0.10;;;19.20;99.90;;;19.30;52.99;101060.78;4922532;28;97520;-50
2022/09/18 09:55:24;;;;;;;0.00;0.00;;;19.30;99.90;;;19.26;53.47;101064.63;4930191;28;97793;-53
2022/09/18 09:57:49;;;;;;;0.10;0.00;;;19.20;99.90;;;19.23;53.08;101059.44;4926529;28;97763;-47
2022/09/18 10:00:19;;;;;;;0.00;0.00;;;19.20;99.90;;;19.06;53.89;101057.03;4930722;28;97995;-50
2022/09/18 10:03:54;;;;;;;0.10;0.00;;;19.10;99.90;;;19.17;53.45;101054.50;4921811;28;97271;-48
2022/09/18 10:06:44;;;;;;;0.00;0.00;;;19.10;99.90;;;19.16;53.53;101052.81;4925734;28;98250;-48
2022/09/18 10:09:21;;;;;;;0.00;0.00;;;19.10;99.90;;;19.15;53.55;101045.75;4927134;28;97438;-52
2022/09/18 10:12:20;;;;;;;0.00;0.00;;;19.10;99.90;;;19.25;53.37;101043.34;4924509;28;100585;-47
2022/09/18 10:14:49;;;;;;;0.00;0.00;;;19.10;99.90;;;19.37;53.09;101045.16;4927260;28;102297;-46
2022/09/18 10:17:17;;;;;;;0.00;0.00;;;19.30;99.90;;;19.45;53.04;101033.97;4912424;28;97524;-49
2022/09/18 10:19:43;;;;;;;0.50;0.10;;;19.40;99.90;;;19.49;52.76;101036.34;4905154;28;97792;-53
2022/09/18 10:22:16;;;;;;;0.00;0.00;;;19.30;99.90;;;19.55;52.70;101032.44;4927858;28;97740;-49
2022/09/18 10:24:55;;;;;;;0.00;0.00;;;19.40;99.90;;;19.61;51.51;101026.66;4904846;28;99403;-48
2022/09/18 10:27:22;;;;;;;0.10;0.10;;;19.50;99.90;;;19.69;51.86;101029.69;4922862;28;97089;-51
2022/09/18 10:29:48;;;;;;;1.10;0.10;;;19.60;99.90;;;19.58;52.57;101032.22;4927433;28;97425;-53
2022/09/18 10:32:35;;;;;;;0.10;0.10;;;19.40;99.90;;;19.47;52.50;101029.38;4929620;28;97493;-50
2022/09/18 10:35:30;;;;;;;0.00;0.00;;;19.40;99.90;;;19.52;51.87;101021.88;4926313;28;100009;-53